createdAt,value
2023-04-23T00:01:18.680Z,19.35
2023-04-23T00:03:48.604Z,13.23
2023-04-23T00:06:17.945Z,27.88
2023-04-23T00:08:46.813Z,68.70
2023-04-23T00:11:17.214Z,55.58
2023-04-23T00:13:47.437Z,27.25
2023-04-23T00:16:16.294Z,11.07
2023-04-23T00:18:44.513Z,15.10
2023-04-23T00:21:13.235Z,17.20
2023-04-23T00:23:42.555Z,28.77
2023-04-23T00:26:10.852Z,13.07
2023-04-23T00:28:40.606Z,9.45
2023-04-23T00:31:08.817Z,10.32
2023-04-23T00:33:38.669Z,6.57
2023-04-23T00:36:07.704Z,6.38
2023-04-23T00:38:35.984Z,7.03
2023-04-23T00:41:04.765Z,8.68
2023-04-23T00:43:33.783Z,8.73
2023-04-23T00:46:03.814Z,6.53
2023-04-23T00:48:33.207Z,3.53
2023-04-23T00:51:04.889Z,6.38
2023-04-23T00:53:33.370Z,8.70
2023-04-23T00:56:03.448Z,6.60
2023-04-23T00:58:32.766Z,8.00
2023-04-23T01:01:02.837Z,6.97
2023-04-23T01:03:33.830Z,6.40
2023-04-23T01:06:02.383Z,4.22
2023-04-23T01:08:33.320Z,6.65
2023-04-23T01:11:03.665Z,6.15
2023-04-23T01:13:32.225Z,10.73
2023-04-23T01:16:00.895Z,7.50
2023-04-23T01:18:29.712Z,5.95
2023-04-23T01:20:59.784Z,5.93
2023-04-23T01:23:29.666Z,4.85
2023-04-23T01:25:58.933Z,5.88
2023-04-23T01:28:27.509Z,6.22
2023-04-23T01:30:56.572Z,12.05
2023-04-23T01:33:25.120Z,6.20
2023-04-23T01:35:54.176Z,3.90
2023-04-23T01:38:24.780Z,8.93
2023-04-23T01:40:54.472Z,14.57
2023-04-23T01:43:24.347Z,6.22
2023-04-23T01:45:52.848Z,3.10
2023-04-23T01:48:21.621Z,3.25
2023-04-23T01:50:51.118Z,3.00
2023-04-23T01:53:20.047Z,6.13
2023-04-23T01:55:50.038Z,4.05
2023-04-23T01:58:20.254Z,7.35
2023-04-23T02:00:48.580Z,5.25
2023-04-23T02:03:17.099Z,4.80
2023-04-23T02:05:46.413Z,5.13
2023-04-23T02:08:14.832Z,8.15
2023-04-23T02:10:43.338Z,6.60
2023-04-23T02:13:11.592Z,3.78
2023-04-23T02:15:43.223Z,2.92
2023-04-23T02:18:14.675Z,5.57
2023-04-23T02:20:44.064Z,6.78
2023-04-23T02:23:13.217Z,2.67
2023-04-23T02:25:43.454Z,4.40
2023-04-23T02:28:13.441Z,5.70
2023-04-23T02:30:46.767Z,11.10
2023-04-23T02:33:15.441Z,2.70
2023-04-23T02:35:43.811Z,8.05
2023-04-23T02:38:12.279Z,3.42
2023-04-23T02:40:40.506Z,4.35
2023-04-23T02:43:08.848Z,5.88
2023-04-23T02:45:37.739Z,3.63
2023-04-23T02:48:07.400Z,5.85
2023-04-23T02:50:35.901Z,4.97
2023-04-23T02:53:04.232Z,2.53
2023-04-23T02:55:33.269Z,4.72
2023-04-23T02:58:02.034Z,2.72
2023-04-23T03:00:31.589Z,1.98
2023-04-23T03:03:00.286Z,3.58
2023-04-23T03:05:30.718Z,5.72
2023-04-23T03:07:58.937Z,6.45
2023-04-23T03:10:27.755Z,4.63
2023-04-23T03:12:56.500Z,5.00
2023-04-23T03:15:25.225Z,4.15
2023-04-23T03:17:54.323Z,5.43
2023-04-23T03:20:23.135Z,3.15
2023-04-23T03:22:52.791Z,3.53
2023-04-23T03:25:24.411Z,2.67
2023-04-23T03:27:53.490Z,6.50
2023-04-23T03:30:22.386Z,6.20
2023-04-23T03:32:51.574Z,5.72
2023-04-23T03:35:20.184Z,5.18
2023-04-23T03:37:50.580Z,4.95
2023-04-23T03:40:21.643Z,8.35
2023-04-23T03:42:53.550Z,4.30
2023-04-23T03:45:29.288Z,4.97
2023-04-23T03:47:57.645Z,8.77
2023-04-23T03:50:26.082Z,4.22
2023-04-23T03:53:08.180Z,8.20
2023-04-23T03:56:09.996Z,8.73
2023-04-23T03:58:48.398Z,11.32
2023-04-23T04:01:16.862Z,8.43
2023-04-23T04:03:45.235Z,8.18
2023-04-23T04:06:13.723Z,5.55
2023-04-23T04:08:41.957Z,6.43
2023-04-23T04:11:11.664Z,6.53
2023-04-23T04:13:40.026Z,4.57
2023-04-23T04:16:08.512Z,5.50
2023-04-23T04:18:36.811Z,3.72
2023-04-23T04:21:05.140Z,5.05
2023-04-23T04:23:33.540Z,6.93
2023-04-23T04:26:02.483Z,6.47
2023-04-23T04:28:36.273Z,9.05
2023-04-23T04:31:05.543Z,6.68
2023-04-23T04:33:35.729Z,7.25
2023-04-23T04:36:05.003Z,4.05
2023-04-23T04:38:33.305Z,6.05
2023-04-23T04:41:02.320Z,4.55
2023-04-23T04:43:32.515Z,7.15
2023-04-23T04:46:01.167Z,3.90
2023-04-23T04:48:29.533Z,3.45
2023-04-23T04:50:58.165Z,6.07
2023-04-23T04:53:26.334Z,7.53
2023-04-23T04:55:54.602Z,2.33
2023-04-23T04:58:22.809Z,3.67
2023-04-23T05:00:52.639Z,9.18
2023-04-23T05:03:21.052Z,5.45
2023-04-23T05:05:49.639Z,3.78
2023-04-23T05:08:18.796Z,4.68
2023-04-23T05:10:47.077Z,5.55
2023-04-23T05:13:15.370Z,4.25
2023-04-23T05:15:43.633Z,8.23
2023-04-23T05:18:13.268Z,2.92
2023-04-23T05:20:42.947Z,5.60
2023-04-23T05:23:11.204Z,6.95
2023-04-23T05:25:39.532Z,13.40
2023-04-23T05:28:08.695Z,7.30
2023-04-23T05:30:37.124Z,6.47
2023-04-23T05:33:05.641Z,6.90
2023-04-23T05:35:35.299Z,7.22
2023-04-23T05:38:05.050Z,3.90
2023-04-23T05:40:33.990Z,2.40
2023-04-23T05:43:02.357Z,4.32
2023-04-23T05:45:30.583Z,8.60
2023-04-23T05:47:58.886Z,4.93
2023-04-23T05:50:27.165Z,4.95
2023-04-23T05:52:56.986Z,3.13
2023-04-23T05:55:25.350Z,4.15
2023-04-23T05:57:53.517Z,2.30
2023-04-23T06:00:21.766Z,6.03
2023-04-23T06:02:50.146Z,4.60
2023-04-23T06:05:18.531Z,4.97
2023-04-23T06:07:47.058Z,6.20
2023-04-23T06:10:16.665Z,4.35
2023-04-23T06:12:44.868Z,9.30
2023-04-23T06:15:13.093Z,3.38
2023-04-23T06:17:41.393Z,4.18
2023-04-23T06:20:12.020Z,3.33
2023-04-23T06:22:40.513Z,4.97
2023-04-23T06:25:09.672Z,7.28
2023-04-23T06:27:39.398Z,5.07
2023-04-23T06:30:15.489Z,8.80
2023-04-23T06:32:44.035Z,6.03
2023-04-23T06:35:12.526Z,5.63
2023-04-23T06:37:41.093Z,4.53
2023-04-23T06:40:09.925Z,8.45
2023-04-23T06:42:39.863Z,11.27
2023-04-23T06:45:18.776Z,7.43
2023-04-23T06:47:49.247Z,10.35
2023-04-23T06:50:17.670Z,8.43
2023-04-23T06:52:46.083Z,8.02
2023-04-23T06:55:14.917Z,7.20
2023-04-23T06:57:44.625Z,5.47
2023-04-23T07:00:14.217Z,3.55
2023-04-23T07:02:44.249Z,7.57
2023-04-23T07:05:12.635Z,4.13
2023-04-23T07:07:43.474Z,7.35
2023-04-23T07:10:14.473Z,5.35
2023-04-23T07:12:46.077Z,2.00
2023-04-23T07:15:14.528Z,4.07
2023-04-23T07:17:42.890Z,3.63
2023-04-23T07:20:11.392Z,3.47
2023-04-23T07:22:39.654Z,3.88
2023-04-23T07:25:08.769Z,3.58
2023-04-23T07:27:37.287Z,4.82
2023-04-23T07:30:09.378Z,6.97
2023-04-23T07:32:37.856Z,4.60
2023-04-23T07:35:07.224Z,9.35
2023-04-23T07:37:35.580Z,5.15
2023-04-23T07:40:05.706Z,7.68
2023-04-23T07:42:34.109Z,3.42
2023-04-23T07:45:02.595Z,5.22
2023-04-23T07:47:35.029Z,7.32
2023-04-23T07:50:03.695Z,3.60
2023-04-23T07:52:32.063Z,4.72
2023-04-23T07:55:00.366Z,5.72
2023-04-23T07:57:28.623Z,4.57
2023-04-23T07:59:56.932Z,4.88
2023-04-23T08:02:26.717Z,2.85
2023-04-23T08:04:56.761Z,4.07
2023-04-23T08:07:25.110Z,3.60
2023-04-23T08:09:53.537Z,4.57
2023-04-23T08:12:21.840Z,3.05
2023-04-23T08:14:50.995Z,5.07
2023-04-23T08:17:23.363Z,5.15
2023-04-23T08:19:51.738Z,1.85
2023-04-23T08:22:22.176Z,10.32
2023-04-23T08:24:50.648Z,11.48
2023-04-23T08:27:18.882Z,27.98
2023-04-23T08:29:47.161Z,22.77
2023-04-23T08:32:15.530Z,73.60
2023-04-23T08:34:43.882Z,23.95
2023-04-23T08:37:23.134Z,17.58
2023-04-23T08:40:00.132Z,10.50
2023-04-23T08:42:37.147Z,14.40
2023-04-23T08:45:06.855Z,47.53
2023-04-23T08:47:35.708Z,17.00
2023-04-23T08:50:05.934Z,34.50
2023-04-23T08:52:39.236Z,21.08
2023-04-23T08:55:11.755Z,44.85
2023-04-23T08:57:42.003Z,17.92
2023-04-23T09:00:11.855Z,15.27
2023-04-23T09:02:42.171Z,8.07
2023-04-23T09:05:11.384Z,31.23
2023-04-23T09:07:39.908Z,16.23
2023-04-23T09:10:11.688Z,17.23
2023-04-23T09:12:42.279Z,24.17
2023-04-23T09:15:12.818Z,31.70
2023-04-23T09:17:45.195Z,20.20
2023-04-23T09:20:15.603Z,7.32
2023-04-23T09:22:47.437Z,12.13
2023-04-23T09:25:19.552Z,6.70
2023-04-23T09:27:50.738Z,7.70
2023-04-23T09:30:20.545Z,15.20
2023-04-23T09:32:49.588Z,13.00
2023-04-23T09:35:20.002Z,12.10
2023-04-23T09:37:49.834Z,12.60
2023-04-23T09:40:21.152Z,25.00
2023-04-23T09:42:50.912Z,17.23
2023-04-23T09:45:19.424Z,15.73
2023-04-23T09:47:53.282Z,19.42
2023-04-23T09:50:32.912Z,17.02
2023-04-23T09:53:01.435Z,19.00
2023-04-23T09:55:35.598Z,15.43
2023-04-23T09:58:05.526Z,22.92
2023-04-23T10:00:36.453Z,19.08
2023-04-23T10:03:08.896Z,15.65
2023-04-23T10:05:59.578Z,15.50
2023-04-23T10:08:29.546Z,15.43
2023-04-23T10:11:13.791Z,25.80
2023-04-23T10:13:48.177Z,14.23
2023-04-23T10:16:23.177Z,22.38
2023-04-23T10:18:55.642Z,11.70
2023-04-23T10:21:33.975Z,14.02
2023-04-23T10:24:10.924Z,16.17
2023-04-23T10:26:43.677Z,16.70
2023-04-23T10:29:15.821Z,23.75
2023-04-23T10:31:44.907Z,27.08
2023-04-23T10:34:13.457Z,20.48
2023-04-23T10:36:41.958Z,14.27
2023-04-23T10:39:10.602Z,9.73
2023-04-23T10:41:42.757Z,13.68
2023-04-23T10:44:15.918Z,8.77
2023-04-23T10:46:53.399Z,9.75
2023-04-23T10:49:24.166Z,20.58
2023-04-23T10:52:18.788Z,16.60
2023-04-23T10:54:50.077Z,10.98
2023-04-23T10:57:20.534Z,17.50
2023-04-23T10:59:53.796Z,27.52
2023-04-23T11:02:25.829Z,8.57
2023-04-23T11:04:57.326Z,15.13
2023-04-23T11:07:27.799Z,10.10
2023-04-23T11:09:57.727Z,10.48
2023-04-23T11:12:34.299Z,15.02
2023-04-23T11:15:12.326Z,20.40
2023-04-23T11:18:03.237Z,21.42
2023-04-23T11:20:31.577Z,11.50
2023-04-23T11:22:59.899Z,12.05
2023-04-23T11:25:30.512Z,12.02
2023-04-23T11:28:00.355Z,15.77
2023-04-23T11:30:30.976Z,11.50
2023-04-23T11:33:00.553Z,14.95
2023-04-23T11:35:30.621Z,11.10
2023-04-23T11:37:58.978Z,14.60
2023-04-23T11:40:30.997Z,18.80
2023-04-23T11:43:00.807Z,23.83
2023-04-23T11:45:30.250Z,24.48
2023-04-23T11:48:01.554Z,16.67
2023-04-23T11:50:33.202Z,7.78
2023-04-23T11:53:06.551Z,13.75
2023-04-23T11:55:34.874Z,10.30
2023-04-23T11:58:04.609Z,10.50
2023-04-23T12:00:32.928Z,7.63
2023-04-23T12:03:02.669Z,12.40
2023-04-23T12:05:33.802Z,8.95
2023-04-23T12:08:10.305Z,11.43
2023-04-23T12:10:47.610Z,21.20
2023-04-23T12:13:18.826Z,11.30
2023-04-23T12:15:51.386Z,7.00
2023-04-23T12:18:20.391Z,18.77
2023-04-23T12:20:48.714Z,24.33
2023-04-23T12:23:17.045Z,10.32
2023-04-23T12:25:45.508Z,14.73
2023-04-23T12:28:13.821Z,11.02
2023-04-23T12:30:46.166Z,12.43
2023-04-23T12:33:14.905Z,14.88
2023-04-23T12:35:44.826Z,24.75
2023-04-23T12:38:23.856Z,15.00
2023-04-23T12:40:52.464Z,28.90
2023-04-23T12:43:20.698Z,104.35
2023-04-23T12:45:51.289Z,95.18
2023-04-23T12:48:19.620Z,17.58
2023-04-23T12:50:48.512Z,7.97
2023-04-23T12:53:16.874Z,6.60
2023-04-23T12:55:46.021Z,10.15
2023-04-23T12:58:14.516Z,6.50
2023-04-23T13:00:42.829Z,12.48
2023-04-23T13:03:14.164Z,10.55
2023-04-23T13:05:42.831Z,6.05
2023-04-23T13:08:11.119Z,9.13
2023-04-23T13:10:39.377Z,8.45
2023-04-23T13:13:07.587Z,5.97
2023-04-23T13:15:35.979Z,7.45
2023-04-23T13:18:04.505Z,5.75
2023-04-23T13:20:34.164Z,9.57
2023-04-23T13:23:03.214Z,6.82
2023-04-23T13:25:31.500Z,6.40
2023-04-23T13:27:59.684Z,8.05
2023-04-23T13:30:28.015Z,9.20
2023-04-23T13:32:57.680Z,7.25
2023-04-23T13:35:26.160Z,5.88
2023-04-23T13:37:55.809Z,8.77
2023-04-23T13:40:24.124Z,7.68
2023-04-23T13:42:55.026Z,5.88
2023-04-23T13:45:23.480Z,10.85
2023-04-23T13:47:51.878Z,9.68
2023-04-23T13:50:20.181Z,7.47
2023-04-23T13:52:48.458Z,10.73
2023-04-23T13:55:18.285Z,3.83
2023-04-23T13:57:46.632Z,5.35
2023-04-23T14:00:15.884Z,14.55
2023-04-23T14:02:44.221Z,9.75
2023-04-23T14:05:12.584Z,28.10
2023-04-23T14:07:40.832Z,6.32
2023-04-23T14:10:09.979Z,4.00
2023-04-23T14:12:40.061Z,9.30
2023-04-23T14:15:09.816Z,10.23
2023-04-23T14:17:39.390Z,7.38
2023-04-23T14:20:09.406Z,13.05
2023-04-23T14:22:38.039Z,86.32
2023-04-23T14:25:10.721Z,24.92
2023-04-23T14:27:46.091Z,4.13
2023-04-23T14:30:19.968Z,9.68
2023-04-23T14:32:49.936Z,9.50
2023-04-23T14:35:22.739Z,5.60
2023-04-23T14:37:55.043Z,5.75
2023-04-23T14:40:23.426Z,28.90
2023-04-23T14:42:53.756Z,18.63
2023-04-23T14:45:23.583Z,7.88
2023-04-23T14:47:51.866Z,10.60
2023-04-23T14:50:20.108Z,6.45
2023-04-23T14:52:49.382Z,13.35
2023-04-23T14:55:17.892Z,7.75
2023-04-23T14:57:47.458Z,138.48
2023-04-23T15:00:18.638Z,14.98
2023-04-23T15:02:47.305Z,10.02
2023-04-23T15:05:16.789Z,13.60
2023-04-23T15:07:45.240Z,11.50
2023-04-23T15:10:13.737Z,27.60
2023-04-23T15:12:50.740Z,13.27
2023-04-23T15:15:43.076Z,30.52
2023-04-23T15:18:12.613Z,54.20
2023-04-23T15:20:40.837Z,18.08
2023-04-23T15:23:09.151Z,27.45
2023-04-23T15:25:37.840Z,13.63
2023-04-23T15:28:07.213Z,50.88
2023-04-23T15:30:37.051Z,38.70
2023-04-23T15:33:05.460Z,21.95
2023-04-23T15:35:33.763Z,18.15
2023-04-23T15:38:02.159Z,126.38
2023-04-23T15:40:30.760Z,42.67
2023-04-23T15:43:00.174Z,15.85
2023-04-23T15:45:28.455Z,8.90
2023-04-23T15:47:58.143Z,11.18
2023-04-23T15:50:27.228Z,27.10
2023-04-23T15:52:57.568Z,24.85
2023-04-23T15:55:25.930Z,22.98
2023-04-23T15:57:54.439Z,13.27
2023-04-23T16:00:22.874Z,22.67
2023-04-23T16:02:51.281Z,18.75
2023-04-23T16:05:21.248Z,16.45
2023-04-23T16:07:49.381Z,7.93
2023-04-23T16:10:17.747Z,7.82
2023-04-23T16:12:47.892Z,12.82
2023-04-23T16:15:16.523Z,23.25
2023-04-23T16:17:45.401Z,29.95
2023-04-23T16:20:13.645Z,17.48
2023-04-23T16:22:43.308Z,44.15
2023-04-23T16:25:11.816Z,19.45
2023-04-23T16:27:40.317Z,35.58
2023-04-23T16:30:10.591Z,27.05
2023-04-23T16:32:38.947Z,20.17
2023-04-23T16:35:08.362Z,10.93
2023-04-23T16:37:36.664Z,27.45
2023-04-23T16:40:07.650Z,28.83
2023-04-23T16:42:35.974Z,22.27
2023-04-23T16:45:04.535Z,28.70
2023-04-23T16:47:36.038Z,21.40
2023-04-23T16:50:04.758Z,22.67
2023-04-23T16:52:34.002Z,42.35
2023-04-23T16:55:02.472Z,45.25
2023-04-23T16:57:33.441Z,36.05
2023-04-23T17:00:01.772Z,39.35
2023-04-23T17:02:34.666Z,39.05
2023-04-23T17:05:03.222Z,49.42
2023-04-23T17:07:32.624Z,58.03
2023-04-23T17:10:01.001Z,48.15
2023-04-23T17:12:29.382Z,52.30
2023-04-23T17:14:59.005Z,57.60
2023-04-23T17:17:27.206Z,48.80
2023-04-23T17:19:55.660Z,44.88
2023-04-23T17:22:24.022Z,38.42
2023-04-23T17:24:52.426Z,41.88
2023-04-23T17:27:20.597Z,56.63
2023-04-23T17:29:48.792Z,41.25
2023-04-23T17:32:18.588Z,51.70
2023-04-23T17:34:51.559Z,341.73
2023-04-23T17:37:24.738Z,114.55
2023-04-23T17:39:52.988Z,177.85
2023-04-23T17:42:21.309Z,147.27
2023-04-23T17:44:49.609Z,138.07
2023-04-23T17:47:19.269Z,113.78
2023-04-23T17:49:47.527Z,119.20
2023-04-23T17:52:16.226Z,90.60
2023-04-23T17:54:46.038Z,78.25
2023-04-23T17:57:14.257Z,86.47
2023-04-23T17:59:42.811Z,86.20
2023-04-23T18:02:11.522Z,60.92
2023-04-23T18:04:41.288Z,69.05
2023-04-23T18:07:09.648Z,71.43
2023-04-23T18:09:37.909Z,80.70
2023-04-23T18:12:06.742Z,76.20
2023-04-23T18:14:35.052Z,75.22
2023-04-23T18:17:03.611Z,74.50
2023-04-23T18:19:32.013Z,79.20
2023-04-23T18:22:03.537Z,81.22
2023-04-23T18:24:31.859Z,84.68
2023-04-23T18:27:00.273Z,88.75
2023-04-23T18:29:29.622Z,84.75
2023-04-23T18:31:57.922Z,90.55
2023-04-23T18:34:26.292Z,85.47
2023-04-23T18:36:56.928Z,88.05
2023-04-23T18:39:31.672Z,93.63
2023-04-23T18:42:01.054Z,90.95
2023-04-23T18:44:29.805Z,123.10
2023-04-23T18:46:58.650Z,139.95
2023-04-23T18:49:40.977Z,138.30
2023-04-23T18:52:09.445Z,140.20
2023-04-23T18:54:39.136Z,129.85
2023-04-23T18:57:07.524Z,112.88
2023-04-23T18:59:37.369Z,106.60
2023-04-23T19:02:06.572Z,105.55
2023-04-23T19:04:35.256Z,102.82
2023-04-23T19:07:04.377Z,96.57
2023-04-23T19:09:33.051Z,89.47
2023-04-23T19:12:02.952Z,94.80
2023-04-23T19:14:31.590Z,89.13
2023-04-23T19:17:00.878Z,69.75
2023-04-23T19:19:32.204Z,64.53
2023-04-23T19:22:03.300Z,64.50
2023-04-23T19:24:32.910Z,60.10
2023-04-23T19:27:02.601Z,53.80
2023-04-23T19:29:31.011Z,43.70
2023-04-23T19:31:59.517Z,45.58
2023-04-23T19:34:28.001Z,52.30
2023-04-23T19:36:56.284Z,49.03
2023-04-23T19:39:26.724Z,46.30
2023-04-23T19:41:54.992Z,55.13
2023-04-23T19:44:24.525Z,55.85
2023-04-23T19:46:52.901Z,50.58
2023-04-23T19:49:21.153Z,45.95
2023-04-23T19:51:50.208Z,58.95
2023-04-23T19:54:18.483Z,65.20
2023-04-23T19:56:46.689Z,63.95
2023-04-23T19:59:16.948Z,61.42
2023-04-23T20:01:47.160Z,65.63
2023-04-23T20:04:16.120Z,69.40
2023-04-23T20:06:44.686Z,65.68
2023-04-23T20:09:18.955Z,56.75
2023-04-23T20:11:47.529Z,67.80
2023-04-23T20:14:15.887Z,69.20
2023-04-23T20:16:44.434Z,64.75
2023-04-23T20:19:15.284Z,65.00
2023-04-23T20:21:45.678Z,61.70
2023-04-23T20:24:15.035Z,49.83
2023-04-23T20:26:43.448Z,56.15
2023-04-23T20:29:11.733Z,41.13
2023-04-23T20:31:40.138Z,38.90
2023-04-23T20:34:08.346Z,38.17
2023-04-23T20:36:39.028Z,35.40
2023-04-23T20:39:08.270Z,26.02
2023-04-23T20:41:36.786Z,26.63
2023-04-23T20:44:06.147Z,20.55
2023-04-23T20:46:34.439Z,26.08
2023-04-23T20:49:03.370Z,18.65
2023-04-23T20:51:34.376Z,24.13
2023-04-23T20:54:04.286Z,21.40
2023-04-23T20:56:32.688Z,19.65
2023-04-23T20:59:01.590Z,20.35
2023-04-23T21:01:32.266Z,19.15
2023-04-23T21:04:02.095Z,19.55
2023-04-23T21:06:31.508Z,18.67
2023-04-23T21:09:00.654Z,14.85
2023-04-23T21:11:31.253Z,17.25
2023-04-23T21:14:00.950Z,15.73
2023-04-23T21:16:29.422Z,20.52
2023-04-23T21:18:57.756Z,21.95
2023-04-23T21:21:29.645Z,21.45
2023-04-23T21:23:59.636Z,19.25
2023-04-23T21:26:28.742Z,20.13
2023-04-23T21:28:58.834Z,23.63
2023-04-23T21:31:39.893Z,20.48
2023-04-23T21:34:08.152Z,21.40
2023-04-23T21:36:36.395Z,17.75
2023-04-23T21:39:05.030Z,18.55
2023-04-23T21:41:33.607Z,17.40
2023-04-23T21:44:03.219Z,18.95
2023-04-23T21:46:32.290Z,19.73
2023-04-23T21:49:00.736Z,26.58
2023-04-23T21:51:30.004Z,20.98
2023-04-23T21:53:58.462Z,19.42
2023-04-23T21:56:26.720Z,23.48
2023-04-23T21:58:55.029Z,20.88
2023-04-23T22:01:24.988Z,26.02
2023-04-23T22:03:53.412Z,18.23
2023-04-23T22:06:21.824Z,21.98
2023-04-23T22:08:52.459Z,22.05
2023-04-23T22:11:20.870Z,16.73
2023-04-23T22:13:49.244Z,22.17
2023-04-23T22:16:27.641Z,14.20
2023-04-23T22:18:59.155Z,17.08
2023-04-23T22:21:28.437Z,13.70
2023-04-23T22:23:57.171Z,17.88
2023-04-23T22:26:25.720Z,13.63
2023-04-23T22:28:54.044Z,17.88
2023-04-23T22:31:22.343Z,7.85
2023-04-23T22:33:50.596Z,10.23
2023-04-23T22:36:20.362Z,9.07
2023-04-23T22:38:48.574Z,13.60
2023-04-23T22:41:16.756Z,9.90
2023-04-23T22:43:45.114Z,11.98
2023-04-23T22:46:13.537Z,9.30
2023-04-23T22:48:44.130Z,10.30
2023-04-23T22:51:12.514Z,7.80
2023-04-23T22:53:42.249Z,11.23
2023-04-23T22:56:10.570Z,8.30
2023-04-23T22:58:38.847Z,12.05
2023-04-23T23:01:07.172Z,7.35
2023-04-23T23:03:35.597Z,10.15
2023-04-23T23:06:04.075Z,11.25
2023-04-23T23:08:32.337Z,6.60
2023-04-23T23:11:02.160Z,12.73
2023-04-23T23:13:30.679Z,10.80
2023-04-23T23:16:02.339Z,12.73
2023-04-23T23:18:30.679Z,8.48
2023-04-23T23:20:58.954Z,7.18
2023-04-23T23:23:27.330Z,11.65
2023-04-23T23:25:58.198Z,7.13
2023-04-23T23:28:29.092Z,9.02
2023-04-23T23:30:57.920Z,9.02
2023-04-23T23:33:27.137Z,11.73
2023-04-23T23:35:55.800Z,10.43
2023-04-23T23:38:24.202Z,7.47
2023-04-23T23:40:52.441Z,14.98
2023-04-23T23:43:20.773Z,10.07
2023-04-23T23:45:50.416Z,9.20
2023-04-23T23:48:18.904Z,8.27
2023-04-23T23:50:47.275Z,8.82
2023-04-23T23:53:15.541Z,11.57
2023-04-23T23:55:43.802Z,9.75
2023-04-23T23:58:12.038Z,11.05
